sensor_id;sensor_type;location;lat;lon;timestamp;temperature;humidity
13093;DHT22;6612;49.568;11.000;2023-03-04T00:02:19;3.80;46.90
13093;DHT22;6612;49.568;11.000;2023-03-04T00:04:45;3.80;47.00
13093;DHT22;6612;49.568;11.000;2023-03-04T00:07:12;3.80;47.10
13093;DHT22;6612;49.568;11.000;2023-03-04T00:09:41;3.80;47.10
13093;DHT22;6612;49.568;11.000;2023-03-04T00:12:10;3.70;47.80
13093;DHT22;6612;49.568;11.000;2023-03-04T00:14:36;3.70;47.20
13093;DHT22;6612;49.568;11.000;2023-03-04T00:17:03;3.70;47.20
13093;DHT22;6612;49.568;11.000;2023-03-04T00:19:31;3.70;47.30
13093;DHT22;6612;49.568;11.000;2023-03-04T00:21:59;3.60;47.30
13093;DHT22;6612;49.568;11.000;2023-03-04T00:24:26;3.60;47.30
13093;DHT22;6612;49.568;11.000;2023-03-04T00:26:53;3.60;47.30
13093;DHT22;6612;49.568;11.000;2023-03-04T00:29:21;3.60;47.30
13093;DHT22;6612;49.568;11.000;2023-03-04T00:31:48;3.60;47.40
13093;DHT22;6612;49.568;11.000;2023-03-04T00:34:15;3.50;48.00
13093;DHT22;6612;49.568;11.000;2023-03-04T00:36:42;3.50;47.40
13093;DHT22;6612;49.568;11.000;2023-03-04T00:39:09;3.50;47.40
13093;DHT22;6612;49.568;11.000;2023-03-04T00:41:37;3.40;47.30
13093;DHT22;6612;49.568;11.000;2023-03-04T00:44:04;3.50;47.50
13093;DHT22;6612;49.568;11.000;2023-03-04T00:46:32;3.40;47.40
13093;DHT22;6612;49.568;11.000;2023-03-04T00:48:59;3.40;47.50
13093;DHT22;6612;49.568;11.000;2023-03-04T00:51:26;3.30;47.40
13093;DHT22;6612;49.568;11.000;2023-03-04T00:53:53;3.30;47.50
13093;DHT22;6612;49.568;11.000;2023-03-04T00:56:20;3.20;47.50
13093;DHT22;6612;49.568;11.000;2023-03-04T00:58:47;3.20;47.40
13093;DHT22;6612;49.568;11.000;2023-03-04T01:01:14;3.20;47.50
13093;DHT22;6612;49.568;11.000;2023-03-04T01:03:42;3.20;47.60
13093;DHT22;6612;49.568;11.000;2023-03-04T01:06:09;3.20;47.60
13093;DHT22;6612;49.568;11.000;2023-03-04T01:08:37;3.20;47.60
13093;DHT22;6612;49.568;11.000;2023-03-04T01:11:04;3.10;47.60
13093;DHT22;6612;49.568;11.000;2023-03-04T01:13:31;3.10;47.70
13093;DHT22;6612;49.568;11.000;2023-03-04T01:15:58;3.10;47.70
13093;DHT22;6612;49.568;11.000;2023-03-04T01:18:25;3.10;47.80
13093;DHT22;6612;49.568;11.000;2023-03-04T01:20:53;3.10;47.80
13093;DHT22;6612;49.568;11.000;2023-03-04T01:23:20;3.00;47.80
13093;DHT22;6612;49.568;11.000;2023-03-04T01:25:47;3.00;48.40
13093;DHT22;6612;49.568;11.000;2023-03-04T01:28:14;3.00;47.90
13093;DHT22;6612;49.568;11.000;2023-03-04T01:30:41;2.90;48.50
13093;DHT22;6612;49.568;11.000;2023-03-04T01:33:08;2.90;47.90
13093;DHT22;6612;49.568;11.000;2023-03-04T01:35:35;2.90;48.00
13093;DHT22;6612;49.568;11.000;2023-03-04T01:38:03;2.90;48.00
13093;DHT22;6612;49.568;11.000;2023-03-04T01:40:30;2.80;48.10
13093;DHT22;6612;49.568;11.000;2023-03-04T01:42:57;2.80;48.00
13093;DHT22;6612;49.568;11.000;2023-03-04T01:45:24;2.80;48.10
13093;DHT22;6612;49.568;11.000;2023-03-04T01:47:51;2.80;48.10
13093;DHT22;6612;49.568;11.000;2023-03-04T01:50:21;2.70;48.00
13093;DHT22;6612;49.568;11.000;2023-03-04T01:52:49;2.70;48.20
13093;DHT22;6612;49.568;11.000;2023-03-04T01:55:19;2.70;48.10
13093;DHT22;6612;49.568;11.000;2023-03-04T01:57:47;2.70;48.30
13093;DHT22;6612;49.568;11.000;2023-03-04T02:00:24;2.70;48.20
13093;DHT22;6612;49.568;11.000;2023-03-04T02:02:54;2.60;48.50
13093;DHT22;6612;49.568;11.000;2023-03-04T02:05:23;2.60;48.20
13093;DHT22;6612;49.568;11.000;2023-03-04T02:07:51;2.50;48.10
13093;DHT22;6612;49.568;11.000;2023-03-04T02:10:20;2.50;48.20
13093;DHT22;6612;49.568;11.000;2023-03-04T02:12:47;2.50;48.40
13093;DHT22;6612;49.568;11.000;2023-03-04T02:15:14;2.50;48.30
13093;DHT22;6612;49.568;11.000;2023-03-04T02:17:41;2.50;48.40
13093;DHT22;6612;49.568;11.000;2023-03-04T02:20:17;2.40;48.40
13093;DHT22;6612;49.568;11.000;2023-03-04T02:22:50;2.40;48.70
13093;DHT22;6612;49.568;11.000;2023-03-04T02:25:25;2.50;48.70
13093;DHT22;6612;49.568;11.000;2023-03-04T02:27:57;2.40;48.70
13093;DHT22;6612;49.568;11.000;2023-03-04T02:30:24;2.40;48.60
13093;DHT22;6612;49.568;11.000;2023-03-04T02:32:51;2.30;48.50
13093;DHT22;6612;49.568;11.000;2023-03-04T02:35:19;2.40;48.60
13093;DHT22;6612;49.568;11.000;2023-03-04T02:37:46;2.30;48.60
13093;DHT22;6612;49.568;11.000;2023-03-04T02:40:15;2.30;48.70
13093;DHT22;6612;49.568;11.000;2023-03-04T02:42:44;2.30;48.80
13093;DHT22;6612;49.568;11.000;2023-03-04T02:45:34;2.30;48.80
13093;DHT22;6612;49.568;11.000;2023-03-04T02:48:02;2.30;49.60
13093;DHT22;6612;49.568;11.000;2023-03-04T02:50:34;2.30;49.00
13093;DHT22;6612;49.568;11.000;2023-03-04T02:53:01;2.30;49.20
13093;DHT22;6612;49.568;11.000;2023-03-04T02:55:28;2.30;49.20
13093;DHT22;6612;49.568;11.000;2023-03-04T02:57:56;2.30;49.90
13093;DHT22;6612;49.568;11.000;2023-03-04T03:00:24;2.30;49.30
13093;DHT22;6612;49.568;11.000;2023-03-04T03:02:52;2.30;49.40
13093;DHT22;6612;49.568;11.000;2023-03-04T03:05:21;2.30;49.50
13093;DHT22;6612;49.568;11.000;2023-03-04T03:07:49;2.30;49.50
13093;DHT22;6612;49.568;11.000;2023-03-04T03:10:18;2.40;49.70
13093;DHT22;6612;49.568;11.000;2023-03-04T03:12:46;2.40;49.80
13093;DHT22;6612;49.568;11.000;2023-03-04T03:15:13;2.40;49.90
13093;DHT22;6612;49.568;11.000;2023-03-04T03:17:40;2.50;50.00
13093;DHT22;6612;49.568;11.000;2023-03-04T03:20:10;2.60;50.20
13093;DHT22;6612;49.568;11.000;2023-03-04T03:22:37;2.60;50.30
13093;DHT22;6612;49.568;11.000;2023-03-04T03:25:05;2.70;50.30
13093;DHT22;6612;49.568;11.000;2023-03-04T03:27:33;2.80;50.30
13093;DHT22;6612;49.568;11.000;2023-03-04T03:30:00;2.80;50.20
13093;DHT22;6612;49.568;11.000;2023-03-04T03:32:27;2.90;50.20
13093;DHT22;6612;49.568;11.000;2023-03-04T03:34:54;2.90;50.20
13093;DHT22;6612;49.568;11.000;2023-03-04T03:37:22;3.00;50.30
13093;DHT22;6612;49.568;11.000;2023-03-04T03:39:49;3.10;50.40
13093;DHT22;6612;49.568;11.000;2023-03-04T03:42:16;3.10;50.30
13093;DHT22;6612;49.568;11.000;2023-03-04T03:44:43;3.20;51.10
13093;DHT22;6612;49.568;11.000;2023-03-04T03:47:10;3.20;50.30
13093;DHT22;6612;49.568;11.000;2023-03-04T03:49:37;3.30;50.30
13093;DHT22;6612;49.568;11.000;2023-03-04T03:52:04;3.30;50.30
13093;DHT22;6612;49.568;11.000;2023-03-04T03:54:34;3.40;50.30
13093;DHT22;6612;49.568;11.000;2023-03-04T03:57:01;3.40;50.40
13093;DHT22;6612;49.568;11.000;2023-03-04T03:59:28;3.50;50.30
13093;DHT22;6612;49.568;11.000;2023-03-04T04:01:55;3.50;50.30
13093;DHT22;6612;49.568;11.000;2023-03-04T04:04:21;3.50;50.30
13093;DHT22;6612;49.568;11.000;2023-03-04T04:06:48;3.60;50.30
13093;DHT22;6612;49.568;11.000;2023-03-04T04:09:15;3.60;50.40
13093;DHT22;6612;49.568;11.000;2023-03-04T04:11:44;3.70;50.40
13093;DHT22;6612;49.568;11.000;2023-03-04T04:14:11;3.70;50.50
13093;DHT22;6612;49.568;11.000;2023-03-04T04:16:38;3.70;50.40
13093;DHT22;6612;49.568;11.000;2023-03-04T04:19:05;3.80;50.50
13093;DHT22;6612;49.568;11.000;2023-03-04T04:21:32;3.80;50.40
13093;DHT22;6612;49.568;11.000;2023-03-04T04:23:59;3.80;50.50
13093;DHT22;6612;49.568;11.000;2023-03-04T04:26:26;3.80;50.40
13093;DHT22;6612;49.568;11.000;2023-03-04T04:28:54;4.00;50.60
13093;DHT22;6612;49.568;11.000;2023-03-04T04:31:21;3.90;50.50
13093;DHT22;6612;49.568;11.000;2023-03-04T04:33:48;3.90;50.40
13093;DHT22;6612;49.568;11.000;2023-03-04T04:36:15;4.00;50.50
13093;DHT22;6612;49.568;11.000;2023-03-04T04:38:42;4.00;50.50
13093;DHT22;6612;49.568;11.000;2023-03-04T04:41:18;4.00;50.50
13093;DHT22;6612;49.568;11.000;2023-03-04T04:43:45;4.00;50.70
13093;DHT22;6612;49.568;11.000;2023-03-04T04:46:14;4.00;50.40
13093;DHT22;6612;49.568;11.000;2023-03-04T04:48:41;4.00;50.50
13093;DHT22;6612;49.568;11.000;2023-03-04T04:51:08;4.10;50.60
13093;DHT22;6612;49.568;11.000;2023-03-04T04:53:36;4.10;50.60
13093;DHT22;6612;49.568;11.000;2023-03-04T04:56:08;4.10;50.60
13093;DHT22;6612;49.568;11.000;2023-03-04T04:58:36;4.10;50.80
13093;DHT22;6612;49.568;11.000;2023-03-04T05:01:03;4.10;50.60
13093;DHT22;6612;49.568;11.000;2023-03-04T05:03:32;4.20;50.60
13093;DHT22;6612;49.568;11.000;2023-03-04T05:05:59;4.20;50.70
13093;DHT22;6612;49.568;11.000;2023-03-04T05:08:26;4.20;50.60
13093;DHT22;6612;49.568;11.000;2023-03-04T05:10:53;4.30;50.60
13093;DHT22;6612;49.568;11.000;2023-03-04T05:13:20;4.30;50.60
13093;DHT22;6612;49.568;11.000;2023-03-04T05:15:50;4.30;50.60
13093;DHT22;6612;49.568;11.000;2023-03-04T05:18:17;4.30;50.70
13093;DHT22;6612;49.568;11.000;2023-03-04T05:20:49;4.40;50.70
13093;DHT22;6612;49.568;11.000;2023-03-04T05:23:16;4.40;50.80
13093;DHT22;6612;49.568;11.000;2023-03-04T05:25:43;4.40;50.60
13093;DHT22;6612;49.568;11.000;2023-03-04T05:28:10;4.40;50.50
13093;DHT22;6612;49.568;11.000;2023-03-04T05:30:37;4.40;50.50
13093;DHT22;6612;49.568;11.000;2023-03-04T05:33:04;4.40;50.60
13093;DHT22;6612;49.568;11.000;2023-03-04T05:35:33;4.50;50.60
13093;DHT22;6612;49.568;11.000;2023-03-04T05:38:01;4.50;50.60
13093;DHT22;6612;49.568;11.000;2023-03-04T05:40:28;4.50;50.60
13093;DHT22;6612;49.568;11.000;2023-03-04T05:42:55;4.60;50.60
13093;DHT22;6612;49.568;11.000;2023-03-04T05:45:22;4.50;50.50
13093;DHT22;6612;49.568;11.000;2023-03-04T05:47:49;4.60;50.60
13093;DHT22;6612;49.568;11.000;2023-03-04T05:50:17;4.50;50.50
13093;DHT22;6612;49.568;11.000;2023-03-04T05:52:44;4.60;50.60
13093;DHT22;6612;49.568;11.000;2023-03-04T05:55:12;4.60;50.60
13093;DHT22;6612;49.568;11.000;2023-03-04T05:57:40;4.60;50.70
13093;DHT22;6612;49.568;11.000;2023-03-04T06:00:08;4.60;50.60
13093;DHT22;6612;49.568;11.000;2023-03-04T06:02:38;4.60;50.60
13093;DHT22;6612;49.568;11.000;2023-03-04T06:05:06;4.60;50.60
13093;DHT22;6612;49.568;11.000;2023-03-04T06:07:34;4.60;50.60
13093;DHT22;6612;49.568;11.000;2023-03-04T06:10:01;4.70;50.70
13093;DHT22;6612;49.568;11.000;2023-03-04T06:12:29;4.70;50.70
13093;DHT22;6612;49.568;11.000;2023-03-04T06:14:56;4.70;50.80
13093;DHT22;6612;49.568;11.000;2023-03-04T06:17:23;4.70;50.60
13093;DHT22;6612;49.568;11.000;2023-03-04T06:19:50;4.70;50.60
13093;DHT22;6612;49.568;11.000;2023-03-04T06:22:17;4.70;50.70
13093;DHT22;6612;49.568;11.000;2023-03-04T06:24:43;4.70;50.70
13093;DHT22;6612;49.568;11.000;2023-03-04T06:27:10;4.70;50.70
13093;DHT22;6612;49.568;11.000;2023-03-04T06:29:39;4.80;50.80
13093;DHT22;6612;49.568;11.000;2023-03-04T06:32:06;4.90;50.90
13093;DHT22;6612;49.568;11.000;2023-03-04T06:34:33;4.80;50.80
13093;DHT22;6612;49.568;11.000;2023-03-04T06:37:00;4.80;50.80
13093;DHT22;6612;49.568;11.000;2023-03-04T06:39:27;4.90;50.90
13093;DHT22;6612;49.568;11.000;2023-03-04T06:41:54;4.80;50.80
13093;DHT22;6612;49.568;11.000;2023-03-04T06:44:21;4.80;50.80
13093;DHT22;6612;49.568;11.000;2023-03-04T06:46:49;4.90;50.90
13093;DHT22;6612;49.568;11.000;2023-03-04T06:49:16;4.90;50.90
13093;DHT22;6612;49.568;11.000;2023-03-04T06:51:43;4.90;50.90
13093;DHT22;6612;49.568;11.000;2023-03-04T06:54:10;4.90;50.90
13093;DHT22;6612;49.568;11.000;2023-03-04T06:56:37;4.90;50.80
13093;DHT22;6612;49.568;11.000;2023-03-04T06:59:04;5.00;50.90
13093;DHT22;6612;49.568;11.000;2023-03-04T07:01:31;5.00;50.90
13093;DHT22;6612;49.568;11.000;2023-03-04T07:04:00;5.00;50.90
13093;DHT22;6612;49.568;11.000;2023-03-04T07:06:28;5.10;51.00
13093;DHT22;6612;49.568;11.000;2023-03-04T07:08:55;5.10;51.00
13093;DHT22;6612;49.568;11.000;2023-03-04T07:11:23;5.10;51.00
13093;DHT22;6612;49.568;11.000;2023-03-04T07:13:50;5.10;51.00
13093;DHT22;6612;49.568;11.000;2023-03-04T07:16:20;5.20;51.00
13093;DHT22;6612;49.568;11.000;2023-03-04T07:18:47;5.10;51.00
13093;DHT22;6612;49.568;11.000;2023-03-04T07:21:16;5.20;51.00
13093;DHT22;6612;49.568;11.000;2023-03-04T07:23:43;5.20;51.10
13093;DHT22;6612;49.568;11.000;2023-03-04T07:26:11;5.30;51.10
13093;DHT22;6612;49.568;11.000;2023-03-04T07:28:38;5.40;51.20
13093;DHT22;6612;49.568;11.000;2023-03-04T07:31:08;5.30;51.00
13093;DHT22;6612;49.568;11.000;2023-03-04T07:33:35;5.50;51.20
13093;DHT22;6612;49.568;11.000;2023-03-04T07:36:02;5.40;51.10
13093;DHT22;6612;49.568;11.000;2023-03-04T07:38:31;5.40;51.10
13093;DHT22;6612;49.568;11.000;2023-03-04T07:40:58;5.50;51.20
13093;DHT22;6612;49.568;11.000;2023-03-04T07:43:25;5.60;51.20
13093;DHT22;6612;49.568;11.000;2023-03-04T07:45:57;5.50;51.10
13093;DHT22;6612;49.568;11.000;2023-03-04T07:48:24;5.60;51.30
13093;DHT22;6612;49.568;11.000;2023-03-04T07:51:02;5.70;51.20
13093;DHT22;6612;49.568;11.000;2023-03-04T07:53:31;5.70;51.50
13093;DHT22;6612;49.568;11.000;2023-03-04T07:55:58;5.70;51.20
13093;DHT22;6612;49.568;11.000;2023-03-04T07:58:25;5.70;51.10
13093;DHT22;6612;49.568;11.000;2023-03-04T08:00:52;5.80;51.20
13093;DHT22;6612;49.568;11.000;2023-03-04T08:03:19;5.80;51.20
13093;DHT22;6612;49.568;11.000;2023-03-04T08:05:46;5.90;51.30
13093;DHT22;6612;49.568;11.000;2023-03-04T08:08:13;5.90;51.20
13093;DHT22;6612;49.568;11.000;2023-03-04T08:10:41;6.00;51.30
13093;DHT22;6612;49.568;11.000;2023-03-04T08:13:08;6.00;51.20
13093;DHT22;6612;49.568;11.000;2023-03-04T08:15:39;6.10;51.20
13093;DHT22;6612;49.568;11.000;2023-03-04T08:18:07;6.10;51.20
13093;DHT22;6612;49.568;11.000;2023-03-04T08:20:33;6.20;51.20
13093;DHT22;6612;49.568;11.000;2023-03-04T08:23:00;6.20;51.20
13093;DHT22;6612;49.568;11.000;2023-03-04T08:25:27;6.30;51.10
13093;DHT22;6612;49.568;11.000;2023-03-04T08:27:56;6.30;51.10
13093;DHT22;6612;49.568;11.000;2023-03-04T08:30:23;6.50;51.20
13093;DHT22;6612;49.568;11.000;2023-03-04T08:32:50;6.50;51.10
13093;DHT22;6612;49.568;11.000;2023-03-04T08:35:16;6.50;51.00
13093;DHT22;6612;49.568;11.000;2023-03-04T08:37:43;6.60;51.00
13093;DHT22;6612;49.568;11.000;2023-03-04T08:40:12;6.60;50.90
13093;DHT22;6612;49.568;11.000;2023-03-04T08:42:39;6.70;51.00
13093;DHT22;6612;49.568;11.000;2023-03-04T08:45:08;6.70;50.90
13093;DHT22;6612;49.568;11.000;2023-03-04T08:47:36;6.70;50.80
13093;DHT22;6612;49.568;11.000;2023-03-04T08:50:04;6.80;50.80
13093;DHT22;6612;49.568;11.000;2023-03-04T08:52:32;6.90;50.80
13093;DHT22;6612;49.568;11.000;2023-03-04T08:54:59;6.90;50.60
13093;DHT22;6612;49.568;11.000;2023-03-04T08:57:26;6.90;50.50
13093;DHT22;6612;49.568;11.000;2023-03-04T08:59:52;7.00;50.60
13093;DHT22;6612;49.568;11.000;2023-03-04T09:02:21;7.00;50.50
13093;DHT22;6612;49.568;11.000;2023-03-04T09:04:48;7.10;50.60
13093;DHT22;6612;49.568;11.000;2023-03-04T09:07:14;7.20;50.60
13093;DHT22;6612;49.568;11.000;2023-03-04T09:09:41;7.20;50.50
13093;DHT22;6612;49.568;11.000;2023-03-04T09:12:09;7.30;51.20
13093;DHT22;6612;49.568;11.000;2023-03-04T09:14:36;7.30;50.40
13093;DHT22;6612;49.568;11.000;2023-03-04T09:17:05;7.40;51.00
13093;DHT22;6612;49.568;11.000;2023-03-04T09:19:33;7.40;50.30
13093;DHT22;6612;49.568;11.000;2023-03-04T09:22:00;7.40;50.10
13093;DHT22;6612;49.568;11.000;2023-03-04T09:24:27;7.50;50.10
13093;DHT22;6612;49.568;11.000;2023-03-04T09:26:54;7.50;50.10
13093;DHT22;6612;49.568;11.000;2023-03-04T09:29:21;7.60;50.10
13093;DHT22;6612;49.568;11.000;2023-03-04T09:31:49;7.60;50.60
13093;DHT22;6612;49.568;11.000;2023-03-04T09:34:16;7.70;50.00
13093;DHT22;6612;49.568;11.000;2023-03-04T09:36:44;7.70;49.90
13093;DHT22;6612;49.568;11.000;2023-03-04T09:39:11;7.80;49.90
13093;DHT22;6612;49.568;11.000;2023-03-04T09:41:41;7.80;49.70
13093;DHT22;6612;49.568;11.000;2023-03-04T09:44:15;7.90;49.80
13093;DHT22;6612;49.568;11.000;2023-03-04T09:46:43;7.90;50.30
13093;DHT22;6612;49.568;11.000;2023-03-04T09:49:11;8.00;49.60
13093;DHT22;6612;49.568;11.000;2023-03-04T09:51:54;8.00;49.60
13093;DHT22;6612;49.568;11.000;2023-03-04T09:54:50;8.10;49.60
13093;DHT22;6612;49.568;11.000;2023-03-04T09:57:27;8.10;49.30
13093;DHT22;6612;49.568;11.000;2023-03-04T10:00:04;8.20;49.50
13093;DHT22;6612;49.568;11.000;2023-03-04T10:02:43;8.20;49.30
13093;DHT22;6612;49.568;11.000;2023-03-04T10:05:15;8.20;49.20
13093;DHT22;6612;49.568;11.000;2023-03-04T10:07:47;8.30;49.20
13093;DHT22;6612;49.568;11.000;2023-03-04T10:10:20;8.30;49.10
13093;DHT22;6612;49.568;11.000;2023-03-04T10:12:49;8.40;49.10
13093;DHT22;6612;49.568;11.000;2023-03-04T10:15:22;8.40;49.20
13093;DHT22;6612;49.568;11.000;2023-03-04T10:17:56;8.40;49.20
13093;DHT22;6612;49.568;11.000;2023-03-04T10:20:27;8.50;49.30
13093;DHT22;6612;49.568;11.000;2023-03-04T10:23:07;8.60;49.30
13093;DHT22;6612;49.568;11.000;2023-03-04T10:25:39;8.70;49.30
13093;DHT22;6612;49.568;11.000;2023-03-04T10:28:11;8.70;49.20
13093;DHT22;6612;49.568;11.000;2023-03-04T10:30:47;8.80;49.80
13093;DHT22;6612;49.568;11.000;2023-03-04T10:33:17;8.90;49.50
13093;DHT22;6612;49.568;11.000;2023-03-04T10:35:47;8.90;48.70
13093;DHT22;6612;49.568;11.000;2023-03-04T10:38:19;8.90;48.60
13093;DHT22;6612;49.568;11.000;2023-03-04T10:40:47;9.00;48.50
13093;DHT22;6612;49.568;11.000;2023-03-04T10:43:16;9.10;48.50
13093;DHT22;6612;49.568;11.000;2023-03-04T10:45:43;9.10;48.40
13093;DHT22;6612;49.568;11.000;2023-03-04T10:48:18;9.20;48.40
13093;DHT22;6612;49.568;11.000;2023-03-04T10:50:45;9.30;48.30
13093;DHT22;6612;49.568;11.000;2023-03-04T10:53:32;9.40;48.40
13093;DHT22;6612;49.568;11.000;2023-03-04T10:56:03;9.40;48.00
13093;DHT22;6612;49.568;11.000;2023-03-04T10:58:29;9.40;48.10
13093;DHT22;6612;49.568;11.000;2023-03-04T11:01:02;9.40;48.50
13093;DHT22;6612;49.568;11.000;2023-03-04T11:03:32;9.50;48.40
13093;DHT22;6612;49.568;11.000;2023-03-04T11:06:10;9.50;47.70
13093;DHT22;6612;49.568;11.000;2023-03-04T11:08:40;9.60;47.40
13093;DHT22;6612;49.568;11.000;2023-03-04T11:11:21;9.60;47.40
13093;DHT22;6612;49.568;11.000;2023-03-04T11:13:55;9.60;47.00
13093;DHT22;6612;49.568;11.000;2023-03-04T11:16:25;9.60;47.00
13093;DHT22;6612;49.568;11.000;2023-03-04T11:18:53;9.60;47.70
13093;DHT22;6612;49.568;11.000;2023-03-04T11:21:23;9.60;46.90
13093;DHT22;6612;49.568;11.000;2023-03-04T11:23:55;9.60;46.90
13093;DHT22;6612;49.568;11.000;2023-03-04T11:26:27;9.70;47.60
13093;DHT22;6612;49.568;11.000;2023-03-04T11:28:58;9.70;46.70
13093;DHT22;6612;49.568;11.000;2023-03-04T11:31:31;9.70;47.30
13093;DHT22;6612;49.568;11.000;2023-03-04T11:34:03;9.70;46.70
13093;DHT22;6612;49.568;11.000;2023-03-04T11:36:39;9.70;46.60
13093;DHT22;6612;49.568;11.000;2023-03-04T11:39:17;9.70;46.60
13093;DHT22;6612;49.568;11.000;2023-03-04T11:41:50;9.70;46.30
13093;DHT22;6612;49.568;11.000;2023-03-04T11:44:19;9.70;46.50
13093;DHT22;6612;49.568;11.000;2023-03-04T11:46:58;9.70;46.50
13093;DHT22;6612;49.568;11.000;2023-03-04T11:49:45;9.70;46.40
13093;DHT22;6612;49.568;11.000;2023-03-04T11:52:22;9.80;46.30
13093;DHT22;6612;49.568;11.000;2023-03-04T11:55:11;9.80;46.30
13093;DHT22;6612;49.568;11.000;2023-03-04T11:57:49;9.80;46.10
13093;DHT22;6612;49.568;11.000;2023-03-04T12:00:33;9.80;46.20
13093;DHT22;6612;49.568;11.000;2023-03-04T12:03:20;9.80;46.00
13093;DHT22;6612;49.568;11.000;2023-03-04T12:05:55;9.80;46.00
13093;DHT22;6612;49.568;11.000;2023-03-04T12:08:50;9.80;46.10
13093;DHT22;6612;49.568;11.000;2023-03-04T12:11:28;9.90;46.10
13093;DHT22;6612;49.568;11.000;2023-03-04T12:14:04;9.90;46.20
13093;DHT22;6612;49.568;11.000;2023-03-04T12:16:51;9.90;46.20
13093;DHT22;6612;49.568;11.000;2023-03-04T12:19:29;9.90;45.90
13093;DHT22;6612;49.568;11.000;2023-03-04T12:22:21;9.90;46.50
13093;DHT22;6612;49.568;11.000;2023-03-04T12:25:04;10.00;44.80
13093;DHT22;6612;49.568;11.000;2023-03-04T12:27:40;10.00;44.70
13093;DHT22;6612;49.568;11.000;2023-03-04T12:30:23;10.00;44.70
13093;DHT22;6612;49.568;11.000;2023-03-04T12:32:57;10.00;44.50
13093;DHT22;6612;49.568;11.000;2023-03-04T12:35:36;10.00;44.50
13093;DHT22;6612;49.568;11.000;2023-03-04T12:38:25;10.00;44.30
13093;DHT22;6612;49.568;11.000;2023-03-04T12:41:05;10.00;44.20
13093;DHT22;6612;49.568;11.000;2023-03-04T12:43:50;10.00;44.30
13093;DHT22;6612;49.568;11.000;2023-03-04T12:46:30;10.00;44.10
13093;DHT22;6612;49.568;11.000;2023-03-04T12:49:14;10.00;44.10
13093;DHT22;6612;49.568;11.000;2023-03-04T12:51:46;9.90;44.80
13093;DHT22;6612;49.568;11.000;2023-03-04T12:54:22;9.90;44.90
13093;DHT22;6612;49.568;11.000;2023-03-04T12:56:53;9.90;44.80
13093;DHT22;6612;49.568;11.000;2023-03-04T12:59:25;9.90;44.80
13093;DHT22;6612;49.568;11.000;2023-03-04T13:01:59;9.80;44.70
13093;DHT22;6612;49.568;11.000;2023-03-04T13:04:32;9.90;44.90
13093;DHT22;6612;49.568;11.000;2023-03-04T13:07:12;9.90;45.60
13093;DHT22;6612;49.568;11.000;2023-03-04T13:09:47;9.90;45.00
13093;DHT22;6612;49.568;11.000;2023-03-04T13:12:17;10.00;44.70
13093;DHT22;6612;49.568;11.000;2023-03-04T13:15:16;10.00;44.20
13093;DHT22;6612;49.568;11.000;2023-03-04T13:17:45;10.00;43.90
13093;DHT22;6612;49.568;11.000;2023-03-04T13:20:31;10.00;44.90
13093;DHT22;6612;49.568;11.000;2023-03-04T13:22:59;10.10;44.10
13093;DHT22;6612;49.568;11.000;2023-03-04T13:25:38;10.10;44.30
13093;DHT22;6612;49.568;11.000;2023-03-04T13:28:24;10.10;44.10
13093;DHT22;6612;49.568;11.000;2023-03-04T13:31:15;10.10;43.80
13093;DHT22;6612;49.568;11.000;2023-03-04T13:34:03;10.20;43.90
13093;DHT22;6612;49.568;11.000;2023-03-04T13:39:33;10.20;44.40
13093;DHT22;6612;49.568;11.000;2023-03-04T13:42:02;10.30;44.30
13093;DHT22;6612;49.568;11.000;2023-03-04T13:44:59;10.30;44.20
13093;DHT22;6612;49.568;11.000;2023-03-04T13:47:39;10.30;44.00
13093;DHT22;6612;49.568;11.000;2023-03-04T13:50:28;10.30;44.10
13093;DHT22;6612;49.568;11.000;2023-03-04T13:53:00;10.30;44.00
13093;DHT22;6612;49.568;11.000;2023-03-04T13:56:03;10.30;44.20
13093;DHT22;6612;49.568;11.000;2023-03-04T13:58:31;10.40;44.20
13093;DHT22;6612;49.568;11.000;2023-03-04T14:00:58;10.40;44.30
13093;DHT22;6612;49.568;11.000;2023-03-04T14:03:28;10.40;44.30
13093;DHT22;6612;49.568;11.000;2023-03-04T14:06:15;10.40;44.30
13093;DHT22;6612;49.568;11.000;2023-03-04T14:08:43;10.40;44.10
13093;DHT22;6612;49.568;11.000;2023-03-04T14:11:13;10.40;44.30
13093;DHT22;6612;49.568;11.000;2023-03-04T14:13:40;10.50;44.90
13093;DHT22;6612;49.568;11.000;2023-03-04T14:16:08;10.40;44.10
13093;DHT22;6612;49.568;11.000;2023-03-04T14:18:36;10.50;44.10
13093;DHT22;6612;49.568;11.000;2023-03-04T14:21:04;10.50;44.10
13093;DHT22;6612;49.568;11.000;2023-03-04T14:23:33;10.50;44.10
13093;DHT22;6612;49.568;11.000;2023-03-04T14:26:09;10.50;44.00
13093;DHT22;6612;49.568;11.000;2023-03-04T14:28:44;10.50;44.00
13093;DHT22;6612;49.568;11.000;2023-03-04T14:31:17;10.40;43.90
13093;DHT22;6612;49.568;11.000;2023-03-04T14:33:49;10.40;43.90
13093;DHT22;6612;49.568;11.000;2023-03-04T14:36:19;10.40;43.90
13093;DHT22;6612;49.568;11.000;2023-03-04T14:38:51;10.30;43.80
13093;DHT22;6612;49.568;11.000;2023-03-04T14:41:22;10.30;43.80
13093;DHT22;6612;49.568;11.000;2023-03-04T14:43:55;10.30;43.70
13093;DHT22;6612;49.568;11.000;2023-03-04T14:46:23;10.30;43.70
13093;DHT22;6612;49.568;11.000;2023-03-04T14:48:54;10.20;43.70
13093;DHT22;6612;49.568;11.000;2023-03-04T14:51:36;10.20;44.50
13093;DHT22;6612;49.568;11.000;2023-03-04T14:54:04;10.20;43.90
13093;DHT22;6612;49.568;11.000;2023-03-04T14:56:34;10.10;43.80
13093;DHT22;6612;49.568;11.000;2023-03-04T14:59:01;10.10;43.80
13093;DHT22;6612;49.568;11.000;2023-03-04T15:01:30;10.10;43.90
13093;DHT22;6612;49.568;11.000;2023-03-04T15:04:02;10.10;43.90
13093;DHT22;6612;49.568;11.000;2023-03-04T15:06:30;10.00;43.90
13093;DHT22;6612;49.568;11.000;2023-03-04T15:08:59;10.00;43.90
13093;DHT22;6612;49.568;11.000;2023-03-04T15:11:29;10.00;44.00
13093;DHT22;6612;49.568;11.000;2023-03-04T15:13:57;10.00;43.90
13093;DHT22;6612;49.568;11.000;2023-03-04T15:16:26;9.90;44.70
13093;DHT22;6612;49.568;11.000;2023-03-04T15:18:56;9.90;44.80
13093;DHT22;6612;49.568;11.000;2023-03-04T15:21:30;9.90;44.90
13093;DHT22;6612;49.568;11.000;2023-03-04T15:23:58;9.80;44.80
13093;DHT22;6612;49.568;11.000;2023-03-04T15:26:25;9.80;44.80
13093;DHT22;6612;49.568;11.000;2023-03-04T15:28:52;9.70;44.70
13093;DHT22;6612;49.568;11.000;2023-03-04T15:31:20;9.70;44.70
13093;DHT22;6612;49.568;11.000;2023-03-04T15:33:48;9.70;44.80
13093;DHT22;6612;49.568;11.000;2023-03-04T15:36:16;9.60;44.70
13093;DHT22;6612;49.568;11.000;2023-03-04T15:38:47;9.60;44.80
13093;DHT22;6612;49.568;11.000;2023-03-04T15:41:20;9.60;44.80
13093;DHT22;6612;49.568;11.000;2023-03-04T15:43:47;9.50;44.80
13093;DHT22;6612;49.568;11.000;2023-03-04T15:46:14;9.50;44.90
13093;DHT22;6612;49.568;11.000;2023-03-04T15:48:41;9.40;44.80
13093;DHT22;6612;49.568;11.000;2023-03-04T15:51:12;9.40;44.90
13093;DHT22;6612;49.568;11.000;2023-03-04T15:53:42;9.30;44.80
13093;DHT22;6612;49.568;11.000;2023-03-04T15:56:14;9.30;44.90
13093;DHT22;6612;49.568;11.000;2023-03-04T15:58:42;9.30;44.90
13093;DHT22;6612;49.568;11.000;2023-03-04T16:01:15;9.30;45.00
13093;DHT22;6612;49.568;11.000;2023-03-04T16:03:42;9.20;45.00
13093;DHT22;6612;49.568;11.000;2023-03-04T16:06:10;9.20;45.00
13093;DHT22;6612;49.568;11.000;2023-03-04T16:08:37;9.20;45.10